MAUNA LOA HI US current weather conditions

sailwx.info

Wind from 015 at 6 knots gusting 12

Air temperature 17.2° C
Dewpoint 12.8° C

Last reported at 2017-Dec-14 01:34 UTC.
Time now 2017-Dec-14 02:35 UTC

Location: N 19°28' W 155°22'.
View on Google Maps.

See reports from other nearby stations

  
Tides and Currents Weather Stations Pressure Air Temp Water Temp Dewpoint Dewpoint Depression Visibility Wind Speed Wind Dir Waves Ship Positions
date/time (UTC)wind fromknots sea level pressurealtimeterstation pressurevisibilityair tempwater tempwave heightnotes
2017-Dec-14 01:34 015 6 gusting 12 17.2
2017-Dec-14 00:34 075 2 gusting 7 15.0
2017-Dec-13 23:34 138 1 gusting 6 16.1
2017-Dec-13 22:34 118 2 gusting 9 16.1
2017-Dec-13 21:34 090 4 gusting 10 18.3
2017-Dec-13 20:34 014 4 gusting 10 20.0
2017-Dec-13 19:34 171 3 gusting 9 18.3
2017-Dec-13 18:34 018 1 gusting 6 17.2
2017-Dec-13 17:34 284 2 gusting 6 7.8
2017-Dec-13 16:34 276 5 gusting 6 2.8
2017-Dec-13 15:34 311 4 gusting 6 3.9
2017-Dec-13 14:34 292 3 gusting 6 4.4
2017-Dec-13 13:34 303 3 gusting 6 3.9
2017-Dec-13 12:34 286 0 gusting 4 5.0
2017-Dec-13 11:34 297 4 gusting 6 6.1
2017-Dec-13 10:34 320 0 gusting 6 6.7
2017-Dec-13 09:34 289 3 gusting 5 7.8
2017-Dec-13 08:34 283 3 gusting 6 8.3
2017-Dec-13 07:34 281 4 gusting 5 8.9
2017-Dec-13 06:34 264 2 gusting 3 8.9
2017-Dec-13 05:34 269 0 gusting 3 10.0
2017-Dec-13 04:34 324 1 gusting 2 10.6
2017-Dec-13 03:34 129 15.6
2017-Dec-13 02:34 112 3 gusting 9 17.8
2017-Dec-13 01:34 104 4 gusting 9 20.0
2017-Dec-13 00:34 138 4 gusting 10 21.7
2017-Dec-12 23:34 153 5 gusting 11 22.2
2017-Dec-12 22:34 153 5 gusting 10 22.8
2017-Dec-12 21:34 139 5 gusting 9 21.7
2017-Dec-12 20:34 099 4 gusting 7 20.6
2017-Dec-12 19:34 101 3 gusting 6 19.4
2017-Dec-12 18:34 073 2 gusting 7 17.2
2017-Dec-12 17:34 297 2 gusting 7 10.0
2017-Dec-12 16:34 285 4 gusting 7 4.4
2017-Dec-12 15:34 257 5 gusting 9 6.1
2017-Dec-12 14:34 229 5 gusting 8 7.2
2017-Dec-12 13:34 224 4 gusting 6 5.0
2017-Dec-12 12:34 237 4 gusting 6 5.0
2017-Dec-12 11:34 242 5 gusting 8 6.1
2017-Dec-12 10:34 248 5 gusting 6 4.4
2017-Dec-12 09:34 255 5 gusting 6 3.9
2017-Dec-12 08:34 236 3 gusting 7 6.1
2017-Dec-12 07:34 228 6 gusting 10 10.0
2017-Dec-12 06:34 232 6 gusting 11 10.0
2017-Dec-12 05:34 232 6 gusting 10 10.6
2017-Dec-12 04:34 207 6 gusting 12 12.2
2017-Dec-12 03:34 193 5 gusting 9 15.0
2017-Dec-12 02:34 171 3 gusting 8 18.3